DLH16A ESGG-EDDN
Flight info
| Callsign | DLH16A |
|---|---|
| Flight time | 1h 21m |
| Altitude | 36000 |
| Route | TOPLA L996 ERNOV T402 GOLMI DCT NIKDA DCT SUVAL M736 TABAT Q244 NIBIL DCT PIVIR PIVIR1V |
| Aircraft | A321/M-SDE3FGHIRWY/LB1 |
Departure
| Time | 2026-05-04 16:26 |
|---|---|
| Airport | Göteborg Landvetter Airport (ESGG) |
Arrival
| Time | 2026-05-04 17:47 |
|---|---|
| Airport | Nuremberg Airport (EDDN) |
| Time | Latitude | Longitude | Altitude | Speed | Heading |
|---|---|---|---|---|---|
| 2026-05-04 15:50 | 57.66938 | 12.29446 | 529 ft | 0 kts | 117° |
| 2026-05-04 16:15 | 57.66938 | 12.29445 | 528 ft | 1 kts | 117° |
| 2026-05-04 16:16 | 57.66953 | 12.29357 | 528 ft | 4 kts | 82° |
| 2026-05-04 16:16 | 57.66941 | 12.29317 | 528 ft | 0 kts | 26° |
| 2026-05-04 16:21 | 57.67092 | 12.29230 | 529 ft | 15 kts | 25° |
| 2026-05-04 16:22 | 57.67282 | 12.29404 | 531 ft | 15 kts | 26° |
| 2026-05-04 16:22 | 57.67446 | 12.29339 | 532 ft | 8 kts | 296° |
| 2026-05-04 16:23 | 57.67454 | 12.29103 | 530 ft | 12 kts | 257° |
| 2026-05-04 16:24 | 57.67423 | 12.29016 | 530 ft | 0 kts | 210° |
| 2026-05-04 16:25 | 57.67373 | 12.28968 | 530 ft | 35 kts | 207° |
| 2026-05-04 16:26 | 57.63949 | 12.25863 | 1785 ft | 176 kts | 212° |
| 2026-05-04 16:26 | 57.60047 | 12.22890 | 2741 ft | 242 kts | 193° |
| 2026-05-04 16:27 | 57.56484 | 12.22378 | 3938 ft | 264 kts | 187° |
| 2026-05-04 16:28 | 57.50811 | 12.23769 | 6166 ft | 281 kts | 176° |
| 2026-05-04 16:28 | 57.44920 | 12.25487 | 8330 ft | 288 kts | 178° |
| 2026-05-04 16:29 | 57.36700 | 12.27685 | 10357 ft | 329 kts | 179° |
| 2026-05-04 16:30 | 57.29618 | 12.29568 | 11835 ft | 349 kts | 178° |
| 2026-05-04 16:31 | 57.24771 | 12.30880 | 13045 ft | 355 kts | 178° |
| 2026-05-04 16:31 | 57.17343 | 12.32874 | 14746 ft | 364 kts | 178° |
| 2026-05-04 16:32 | 57.09728 | 12.34868 | 16338 ft | 373 kts | 179° |
| 2026-05-04 16:33 | 57.04577 | 12.36136 | 17349 ft | 379 kts | 179° |
| 2026-05-04 16:33 | 56.99310 | 12.37423 | 18297 ft | 385 kts | 179° |
| 2026-05-04 16:34 | 56.93957 | 12.38748 | 19160 ft | 391 kts | 178° |
| 2026-05-04 16:34 | 56.91245 | 12.39418 | 19588 ft | 394 kts | 178° |
| 2026-05-04 16:35 | 56.83005 | 12.41453 | 20829 ft | 402 kts | 178° |
| 2026-05-04 16:35 | 56.74591 | 12.43512 | 22027 ft | 409 kts | 178° |
| 2026-05-04 16:36 | 56.71775 | 12.44201 | 22528 ft | 409 kts | 178° |
| 2026-05-04 16:36 | 56.66096 | 12.45587 | 23356 ft | 413 kts | 178° |
| 2026-05-04 16:37 | 56.60363 | 12.46976 | 24032 ft | 418 kts | 178° |
| 2026-05-04 16:37 | 56.57469 | 12.47675 | 24366 ft | 420 kts | 177° |
| 2026-05-04 16:37 | 56.51651 | 12.49084 | 25027 ft | 424 kts | 177° |
| 2026-05-04 16:38 | 56.46767 | 12.50262 | 25547 ft | 427 kts | 177° |
| 2026-05-04 16:39 | 56.37881 | 12.52392 | 26528 ft | 433 kts | 176° |
| 2026-05-04 16:39 | 56.31888 | 12.53824 | 27140 ft | 437 kts | 176° |
| 2026-05-04 16:40 | 56.25829 | 12.55273 | 27757 ft | 441 kts | 176° |
| 2026-05-04 16:40 | 56.19724 | 12.56713 | 28310 ft | 445 kts | 175° |
| 2026-05-04 16:41 | 56.13565 | 12.56901 | 28879 ft | 444 kts | 188° |
| 2026-05-04 16:41 | 56.04267 | 12.55514 | 29708 ft | 450 kts | 187° |
| 2026-05-04 16:42 | 55.94887 | 12.54151 | 30405 ft | 455 kts | 187° |
| 2026-05-04 16:43 | 55.88594 | 12.53233 | 30945 ft | 452 kts | 188° |
| 2026-05-04 16:43 | 55.82353 | 12.52319 | 31570 ft | 448 kts | 188° |
| 2026-05-04 16:43 | 55.79243 | 12.51863 | 31859 ft | 447 kts | 188° |
| 2026-05-04 16:44 | 55.66940 | 12.49540 | 32940 ft | 442 kts | 191° |
| 2026-05-04 16:45 | 55.60877 | 12.48236 | 33607 ft | 437 kts | 192° |
| 2026-05-04 16:46 | 55.51845 | 12.46399 | 34304 ft | 435 kts | 191° |
| 2026-05-04 16:46 | 55.45835 | 12.45205 | 34681 ft | 435 kts | 191° |
| 2026-05-04 16:47 | 55.39817 | 12.43994 | 35038 ft | 435 kts | 191° |
| 2026-05-04 16:47 | 55.33809 | 12.42792 | 35401 ft | 435 kts | 191° |
| 2026-05-04 16:48 | 55.24830 | 12.41018 | 35917 ft | 435 kts | 191° |
| 2026-05-04 16:48 | 55.21832 | 12.40427 | 35957 ft | 434 kts | 191° |
| 2026-05-04 16:49 | 55.10012 | 12.38088 | 35959 ft | 432 kts | 191° |
| 2026-05-04 16:50 | 54.98063 | 12.35750 | 35962 ft | 432 kts | 191° |
| 2026-05-04 16:51 | 54.89094 | 12.34002 | 35941 ft | 432 kts | 192° |
| 2026-05-04 16:52 | 54.77142 | 12.31679 | 35974 ft | 432 kts | 192° |
| 2026-05-04 16:53 | 54.68544 | 12.30028 | 35980 ft | 432 kts | 191° |
| 2026-05-04 16:54 | 54.57646 | 12.27970 | 35976 ft | 432 kts | 191° |
| 2026-05-04 16:55 | 54.39948 | 12.25132 | 35996 ft | 432 kts | 191° |
| 2026-05-04 16:56 | 54.25008 | 12.22687 | 35999 ft | 431 kts | 191° |
| 2026-05-04 16:57 | 54.16050 | 12.21220 | 36003 ft | 431 kts | 191° |
| 2026-05-04 16:58 | 54.04107 | 12.19297 | 35984 ft | 431 kts | 191° |
| 2026-05-04 17:00 | 53.86230 | 12.16432 | 35972 ft | 430 kts | 191° |
| 2026-05-04 17:01 | 53.71315 | 12.14067 | 35979 ft | 431 kts | 191° |
| 2026-05-04 17:02 | 53.59361 | 12.12179 | 35972 ft | 431 kts | 191° |
| 2026-05-04 17:03 | 53.50452 | 12.10781 | 35988 ft | 430 kts | 191° |
| 2026-05-04 17:03 | 53.41514 | 12.09390 | 35993 ft | 430 kts | 191° |
| 2026-05-04 17:04 | 53.29629 | 12.07529 | 35990 ft | 428 kts | 191° |
| 2026-05-04 17:05 | 53.17771 | 12.05696 | 35989 ft | 427 kts | 191° |
| 2026-05-04 17:06 | 53.08895 | 12.04334 | 35976 ft | 426 kts | 191° |
| 2026-05-04 17:07 | 53.01036 | 12.03128 | 35985 ft | 426 kts | 191° |
| 2026-05-04 17:07 | 52.94151 | 12.02074 | 35986 ft | 425 kts | 191° |
| 2026-05-04 17:08 | 52.85313 | 12.00707 | 35988 ft | 425 kts | 191° |
| 2026-05-04 17:09 | 52.79435 | 11.99759 | 35992 ft | 422 kts | 195° |
| 2026-05-04 17:09 | 52.73938 | 11.97014 | 35991 ft | 413 kts | 206° |
| 2026-05-04 17:10 | 52.60210 | 11.89934 | 35972 ft | 423 kts | 191° |
| 2026-05-04 17:11 | 52.54346 | 11.88927 | 35977 ft | 423 kts | 192° |
| 2026-05-04 17:12 | 52.45567 | 11.87381 | 35982 ft | 423 kts | 192° |
| 2026-05-04 17:13 | 52.30910 | 11.84839 | 35985 ft | 423 kts | 191° |
| 2026-05-04 17:14 | 52.19207 | 11.82816 | 35990 ft | 423 kts | 191° |
| 2026-05-04 17:15 | 52.10436 | 11.81305 | 35974 ft | 422 kts | 191° |
| 2026-05-04 17:16 | 51.98799 | 11.78928 | 35974 ft | 416 kts | 200° |
| 2026-05-04 17:17 | 51.87948 | 11.72742 | 35958 ft | 413 kts | 204° |
| 2026-05-04 17:18 | 51.77150 | 11.66481 | 35962 ft | 413 kts | 204° |
| 2026-05-04 17:19 | 51.66320 | 11.60240 | 35968 ft | 413 kts | 203° |
| 2026-05-04 17:20 | 51.55473 | 11.54034 | 35982 ft | 414 kts | 203° |
| 2026-05-04 17:20 | 51.47339 | 11.49396 | 35976 ft | 414 kts | 203° |
| 2026-05-04 17:21 | 51.36101 | 11.45448 | 35977 ft | 426 kts | 181° |
| 2026-05-04 17:22 | 51.30183 | 11.46064 | 35842 ft | 427 kts | 181° |
| 2026-05-04 17:23 | 51.21332 | 11.46930 | 35068 ft | 422 kts | 181° |
| 2026-05-04 17:23 | 51.18414 | 11.47200 | 34813 ft | 420 kts | 181° |
| 2026-05-04 17:23 | 51.12622 | 11.47740 | 34327 ft | 417 kts | 181° |
| 2026-05-04 17:24 | 51.09713 | 11.48015 | 34080 ft | 415 kts | 181° |
| 2026-05-04 17:24 | 51.01163 | 11.48846 | 33274 ft | 409 kts | 181° |
| 2026-05-04 17:25 | 50.98322 | 11.49127 | 32992 ft | 408 kts | 181° |
| 2026-05-04 17:25 | 50.92679 | 11.49670 | 32454 ft | 405 kts | 181° |
| 2026-05-04 17:26 | 50.87081 | 11.50188 | 31933 ft | 401 kts | 181° |
| 2026-05-04 17:26 | 50.78853 | 11.50959 | 30716 ft | 389 kts | 181° |
| 2026-05-04 17:27 | 50.73507 | 11.51468 | 29791 ft | 381 kts | 181° |
| 2026-05-04 17:27 | 50.68279 | 11.51970 | 28942 ft | 372 kts | 181° |
| 2026-05-04 17:28 | 50.63184 | 11.52456 | 28141 ft | 362 kts | 181° |
| 2026-05-04 17:29 | 50.55783 | 11.53161 | 27004 ft | 348 kts | 180° |
| 2026-05-04 17:29 | 50.49430 | 11.54314 | 26038 ft | 343 kts | 176° |
| 2026-05-04 17:30 | 50.42414 | 11.55875 | 24930 ft | 337 kts | 176° |
| 2026-05-04 17:31 | 50.37794 | 11.56850 | 24175 ft | 332 kts | 176° |
| 2026-05-04 17:31 | 50.30975 | 11.58248 | 22973 ft | 326 kts | 176° |
| 2026-05-04 17:32 | 50.26465 | 11.58903 | 21887 ft | 327 kts | 187° |
| 2026-05-04 17:33 | 50.19546 | 11.58137 | 19640 ft | 347 kts | 186° |
| 2026-05-04 17:33 | 50.17111 | 11.57871 | 18858 ft | 354 kts | 186° |
| 2026-05-04 17:34 | 50.09922 | 11.57081 | 17099 ft | 338 kts | 186° |
| 2026-05-04 17:34 | 50.07591 | 11.56825 | 16353 ft | 333 kts | 186° |
| 2026-05-04 17:35 | 50.00806 | 11.56086 | 14238 ft | 319 kts | 186° |
| 2026-05-04 17:35 | 49.96455 | 11.55607 | 12917 ft | 311 kts | 186° |
| 2026-05-04 17:35 | 49.94274 | 11.55367 | 12557 ft | 315 kts | 186° |
| 2026-05-04 17:36 | 49.92117 | 11.55127 | 12192 ft | 314 kts | 186° |
| 2026-05-04 17:36 | 49.89978 | 11.54895 | 11921 ft | 293 kts | 186° |
| 2026-05-04 17:36 | 49.87995 | 11.54684 | 11567 ft | 280 kts | 186° |
| 2026-05-04 17:36 | 49.86095 | 11.54494 | 11050 ft | 275 kts | 185° |
| 2026-05-04 17:37 | 49.84190 | 11.54289 | 10559 ft | 274 kts | 187° |
| 2026-05-04 17:37 | 49.82304 | 11.53921 | 10206 ft | 272 kts | 189° |
| 2026-05-04 17:37 | 49.80418 | 11.53509 | 9840 ft | 270 kts | 189° |
| 2026-05-04 17:37 | 49.78562 | 11.53097 | 9411 ft | 269 kts | 189° |
| 2026-05-04 17:38 | 49.76732 | 11.52682 | 8969 ft | 269 kts | 189° |
| 2026-05-04 17:38 | 49.74860 | 11.52244 | 8516 ft | 269 kts | 189° |
| 2026-05-04 17:38 | 49.73002 | 11.51800 | 8091 ft | 270 kts | 189° |
| 2026-05-04 17:38 | 49.71150 | 11.51353 | 7688 ft | 270 kts | 189° |
| 2026-05-04 17:39 | 49.67427 | 11.50434 | 6842 ft | 271 kts | 189° |
| 2026-05-04 17:39 | 49.65564 | 11.49962 | 6433 ft | 271 kts | 189° |
| 2026-05-04 17:39 | 49.63703 | 11.49486 | 6015 ft | 271 kts | 189° |
| 2026-05-04 17:40 | 49.61838 | 11.49005 | 5607 ft | 271 kts | 189° |
| 2026-05-04 17:40 | 49.59989 | 11.48509 | 5309 ft | 267 kts | 189° |
| 2026-05-04 17:40 | 49.58199 | 11.48015 | 5190 ft | 256 kts | 189° |
| 2026-05-04 17:40 | 49.56503 | 11.47550 | 5049 ft | 245 kts | 189° |
| 2026-05-04 17:41 | 49.54827 | 11.47087 | 4817 ft | 240 kts | 189° |
| 2026-05-04 17:41 | 49.53205 | 11.46633 | 4555 ft | 240 kts | 189° |
| 2026-05-04 17:41 | 49.51540 | 11.46170 | 4298 ft | 239 kts | 190° |
| 2026-05-04 17:41 | 49.49942 | 11.45525 | 4081 ft | 237 kts | 208° |
| 2026-05-04 17:42 | 49.48761 | 11.43846 | 4019 ft | 237 kts | 242° |
| 2026-05-04 17:42 | 49.48133 | 11.41504 | 4031 ft | 237 kts | 253° |
| 2026-05-04 17:42 | 49.47662 | 11.39156 | 4023 ft | 225 kts | 254° |
| 2026-05-04 17:42 | 49.47225 | 11.36879 | 4020 ft | 221 kts | 256° |
| 2026-05-04 17:43 | 49.47166 | 11.34569 | 4027 ft | 217 kts | 279° |
| 2026-05-04 17:43 | 49.47412 | 11.32273 | 3917 ft | 216 kts | 281° |
| 2026-05-04 17:43 | 49.47655 | 11.30002 | 3679 ft | 215 kts | 281° |
| 2026-05-04 17:43 | 49.47885 | 11.27738 | 3409 ft | 211 kts | 280° |
| 2026-05-04 17:44 | 49.48099 | 11.25602 | 3134 ft | 195 kts | 281° |
| 2026-05-04 17:44 | 49.48297 | 11.23613 | 2856 ft | 179 kts | 282° |
| 2026-05-04 17:44 | 49.48475 | 11.21824 | 2640 ft | 161 kts | 281° |
| 2026-05-04 17:44 | 49.48640 | 11.20175 | 2437 ft | 152 kts | 282° |
| 2026-05-04 17:45 | 49.48799 | 11.18582 | 2241 ft | 148 kts | 282° |
| 2026-05-04 17:45 | 49.48955 | 11.17029 | 2051 ft | 146 kts | 281° |
| 2026-05-04 17:45 | 49.49108 | 11.15470 | 1841 ft | 147 kts | 281° |
| 2026-05-04 17:45 | 49.49265 | 11.13899 | 1619 ft | 149 kts | 282° |
| 2026-05-04 17:46 | 49.49418 | 11.12318 | 1376 ft | 149 kts | 281° |
| 2026-05-04 17:46 | 49.49580 | 11.10740 | 1206 ft | 149 kts | 281° |
| 2026-05-04 17:46 | 49.49730 | 11.09173 | 1054 ft | 144 kts | 281° |
| 2026-05-04 17:46 | 49.49870 | 11.07823 | 1028 ft | 98 kts | 277° |
| 2026-05-04 17:47 | 49.49936 | 11.07153 | 1023 ft | 29 kts | 279° |
| 2026-05-04 17:47 | 49.49911 | 11.07019 | 1023 ft | 13 kts | 206° |
| 2026-05-04 17:47 | 49.49841 | 11.07035 | 1021 ft | 5 kts | 158° |
| 2026-05-04 17:47 | 49.49833 | 11.07040 | 1021 ft | 0 kts | 158° |
| 2026-05-04 17:48 | 49.49826 | 11.07045 | 1021 ft | 2 kts | 158° |
| 2026-05-04 17:48 | 49.49805 | 11.07058 | 1021 ft | 4 kts | 158° |
| 2026-05-04 17:49 | 49.49774 | 11.07077 | 1021 ft | 5 kts | 157° |
| 2026-05-04 17:49 | 49.49748 | 11.07121 | 1022 ft | 6 kts | 113° |
| 2026-05-04 17:49 | 49.49738 | 11.07185 | 1022 ft | 7 kts | 104° |
| 2026-05-04 17:49 | 49.49705 | 11.07227 | 1023 ft | 6 kts | 170° |
| 2026-05-04 17:50 | 49.49664 | 11.07225 | 1020 ft | 6 kts | 186° |
| 2026-05-04 17:50 | 49.49626 | 11.07217 | 1021 ft | 8 kts | 189° |
| 2026-05-04 17:50 | 49.49559 | 11.07200 | 1022 ft | 10 kts | 189° |
| 2026-05-04 17:50 | 49.49548 | 11.07198 | 1022 ft | 0 kts | 184° |
| 2026-05-04 17:51 | 49.49549 | 11.07198 | 1022 ft | 0 kts | 183° |
| 2026-05-04 17:51 | 49.49548 | 11.07211 | 1024 ft | 1 kts | 94° |
| 2026-05-04 17:51 | 49.49559 | 11.07214 | 1022 ft | 3 kts | 7° |
| 2026-05-04 17:51 | 49.49618 | 11.07224 | 1022 ft | 9 kts | 33° |
| 2026-05-04 17:52 | 49.49630 | 11.07326 | 1021 ft | 11 kts | 97° |
| 2026-05-04 17:52 | 49.49618 | 11.07448 | 1025 ft | 12 kts | 99° |
| 2026-05-04 17:52 | 49.49606 | 11.07569 | 1024 ft | 9 kts | 98° |
| 2026-05-04 17:52 | 49.49586 | 11.07658 | 1024 ft | 8 kts | 144° |
| 2026-05-04 17:53 | 49.49561 | 11.07666 | 1023 ft | 3 kts | 181° |
| 2026-05-04 17:53 | 49.49537 | 11.07662 | 1024 ft | 2 kts | 188° |
| 2026-05-04 17:53 | 49.49529 | 11.07660 | 1022 ft | 0 kts | 188° |